Terminal Aerodrome Forecast
Issued by NWS Buffalo, NY

Home | Current Version | Previous Version | Text Only | Print | Product List | Glossary On
Versions: 1 2 3 4 5 6 7 8 9 10 11 12 13 14 15 16 17 18 19 20 21 22 23
000
FTUS41 KBUF 190529
TAFART
TAF
KART 190529Z 1906/2006 18005KT P6SM SKC WS020/24035KT
     FM190800 19010KT P6SM SKC WS020/24035KT
     FM191400 23016G24KT P6SM SCT250
     FM192000 25016G24KT P6SM BKN040
     FM200100 26008KT P6SM SKC=

USA.gov is the U.S. government's official web portal to all federal, state and local government web resources and services.